sensor_id;sensor_type;location;lat;lon;timestamp;P1;durP1;ratioP1;P2;durP2;ratioP2
17524;SDS011;40431;52.198;9.902;2023-09-08T00:02:08;7.50;;;7.00;;
17524;SDS011;40431;52.198;9.902;2023-09-08T00:04:35;8.17;;;7.03;;
17524;SDS011;40431;52.198;9.902;2023-09-08T00:07:01;7.83;;;7.23;;
17524;SDS011;40431;52.198;9.902;2023-09-08T00:09:29;8.27;;;7.67;;
17524;SDS011;40431;52.198;9.902;2023-09-08T00:11:57;7.80;;;6.83;;
17524;SDS011;40431;52.198;9.902;2023-09-08T00:14:23;7.30;;;6.73;;
17524;SDS011;40431;52.198;9.902;2023-09-08T00:16:51;6.17;;;5.77;;
17524;SDS011;40431;52.198;9.902;2023-09-08T00:19:19;7.47;;;6.87;;
17524;SDS011;40431;52.198;9.902;2023-09-08T00:21:45;8.60;;;7.83;;
17524;SDS011;40431;52.198;9.902;2023-09-08T00:24:12;7.17;;;6.67;;
17524;SDS011;40431;52.198;9.902;2023-09-08T00:26:38;7.23;;;6.73;;
17524;SDS011;40431;52.198;9.902;2023-09-08T00:29:06;7.13;;;6.33;;
17524;SDS011;40431;52.198;9.902;2023-09-08T00:31:32;7.33;;;6.63;;
17524;SDS011;40431;52.198;9.902;2023-09-08T00:33:59;7.00;;;6.50;;
17524;SDS011;40431;52.198;9.902;2023-09-08T00:36:25;7.13;;;6.43;;
17524;SDS011;40431;52.198;9.902;2023-09-08T00:38:52;7.73;;;7.07;;
17524;SDS011;40431;52.198;9.902;2023-09-08T00:41:19;7.37;;;6.87;;
17524;SDS011;40431;52.198;9.902;2023-09-08T00:43:45;6.50;;;6.10;;
17524;SDS011;40431;52.198;9.902;2023-09-08T00:46:13;6.77;;;6.27;;
17524;SDS011;40431;52.198;9.902;2023-09-08T00:48:39;7.70;;;6.90;;
17524;SDS011;40431;52.198;9.902;2023-09-08T00:51:06;7.57;;;7.07;;
17524;SDS011;40431;52.198;9.902;2023-09-08T00:53:32;7.10;;;6.60;;
17524;SDS011;40431;52.198;9.902;2023-09-08T00:55:59;7.13;;;6.50;;
17524;SDS011;40431;52.198;9.902;2023-09-08T00:58:26;7.17;;;6.20;;
17524;SDS011;40431;52.198;9.902;2023-09-08T01:00:52;6.83;;;6.23;;
17524;SDS011;40431;52.198;9.902;2023-09-08T01:03:20;6.47;;;6.00;;
17524;SDS011;40431;52.198;9.902;2023-09-08T01:05:47;7.30;;;6.60;;
17524;SDS011;40431;52.198;9.902;2023-09-08T01:08:14;6.67;;;6.17;;
17524;SDS011;40431;52.198;9.902;2023-09-08T01:10:42;6.60;;;6.03;;
17524;SDS011;40431;52.198;9.902;2023-09-08T01:13:08;6.23;;;5.80;;
17524;SDS011;40431;52.198;9.902;2023-09-08T01:15:35;7.40;;;6.90;;
17524;SDS011;40431;52.198;9.902;2023-09-08T01:18:01;7.30;;;6.80;;
17524;SDS011;40431;52.198;9.902;2023-09-08T01:20:32;7.07;;;6.40;;
17524;SDS011;40431;52.198;9.902;2023-09-08T01:23:17;7.70;;;7.00;;
17524;SDS011;40431;52.198;9.902;2023-09-08T01:25:49;7.53;;;6.83;;
17524;SDS011;40431;52.198;9.902;2023-09-08T01:28:18;6.70;;;6.10;;
17524;SDS011;40431;52.198;9.902;2023-09-08T01:30:48;6.80;;;6.30;;
17524;SDS011;40431;52.198;9.902;2023-09-08T01:33:15;6.73;;;6.17;;
17524;SDS011;40431;52.198;9.902;2023-09-08T01:35:43;6.93;;;6.33;;
17524;SDS011;40431;52.198;9.902;2023-09-08T01:38:09;6.87;;;6.30;;
17524;SDS011;40431;52.198;9.902;2023-09-08T01:40:36;6.93;;;6.37;;
17524;SDS011;40431;52.198;9.902;2023-09-08T01:43:04;7.67;;;6.90;;
17524;SDS011;40431;52.198;9.902;2023-09-08T01:45:31;8.40;;;7.67;;
17524;SDS011;40431;52.198;9.902;2023-09-08T01:47:57;7.30;;;6.60;;
17524;SDS011;40431;52.198;9.902;2023-09-08T01:50:23;7.57;;;7.00;;
17524;SDS011;40431;52.198;9.902;2023-09-08T01:52:50;7.47;;;6.83;;
17524;SDS011;40431;52.198;9.902;2023-09-08T01:55:16;6.90;;;6.40;;
17524;SDS011;40431;52.198;9.902;2023-09-08T01:57:43;7.50;;;6.90;;
17524;SDS011;40431;52.198;9.902;2023-09-08T02:00:13;7.83;;;7.13;;
17524;SDS011;40431;52.198;9.902;2023-09-08T02:02:40;7.93;;;7.33;;
17524;SDS011;40431;52.198;9.902;2023-09-08T02:05:06;6.57;;;6.07;;
17524;SDS011;40431;52.198;9.902;2023-09-08T02:07:33;7.00;;;6.40;;
17524;SDS011;40431;52.198;9.902;2023-09-08T02:10:00;6.97;;;6.40;;
17524;SDS011;40431;52.198;9.902;2023-09-08T02:12:26;7.13;;;6.33;;
17524;SDS011;40431;52.198;9.902;2023-09-08T02:14:53;7.13;;;6.63;;
17524;SDS011;40431;52.198;9.902;2023-09-08T02:17:21;6.50;;;6.00;;
17524;SDS011;40431;52.198;9.902;2023-09-08T02:19:47;6.63;;;6.23;;
17524;SDS011;40431;52.198;9.902;2023-09-08T02:22:14;7.50;;;6.93;;
17524;SDS011;40431;52.198;9.902;2023-09-08T02:24:40;7.17;;;6.50;;
17524;SDS011;40431;52.198;9.902;2023-09-08T02:27:06;6.93;;;6.43;;
17524;SDS011;40431;52.198;9.902;2023-09-08T02:29:33;7.77;;;7.20;;
17524;SDS011;40431;52.198;9.902;2023-09-08T02:32:00;6.60;;;6.10;;
17524;SDS011;40431;52.198;9.902;2023-09-08T02:34:28;7.50;;;7.00;;
17524;SDS011;40431;52.198;9.902;2023-09-08T02:36:54;7.63;;;7.00;;
17524;SDS011;40431;52.198;9.902;2023-09-08T02:39:21;6.63;;;6.13;;
17524;SDS011;40431;52.198;9.902;2023-09-08T02:41:48;7.63;;;7.00;;
17524;SDS011;40431;52.198;9.902;2023-09-08T02:44:14;7.60;;;7.00;;
17524;SDS011;40431;52.198;9.902;2023-09-08T02:46:41;7.60;;;7.10;;
17524;SDS011;40431;52.198;9.902;2023-09-08T02:49:07;6.90;;;6.47;;
17524;SDS011;40431;52.198;9.902;2023-09-08T02:51:35;7.47;;;6.87;;
17524;SDS011;40431;52.198;9.902;2023-09-08T02:54:01;7.70;;;7.00;;
17524;SDS011;40431;52.198;9.902;2023-09-08T02:56:28;6.57;;;6.07;;
17524;SDS011;40431;52.198;9.902;2023-09-08T02:58:54;6.70;;;6.10;;
17524;SDS011;40431;52.198;9.902;2023-09-08T03:01:21;7.57;;;6.87;;
17524;SDS011;40431;52.198;9.902;2023-09-08T03:03:47;6.73;;;6.30;;
17524;SDS011;40431;52.198;9.902;2023-09-08T03:06:14;7.33;;;6.77;;
17524;SDS011;40431;52.198;9.902;2023-09-08T03:08:47;7.33;;;6.73;;
17524;SDS011;40431;52.198;9.902;2023-09-08T03:11:13;7.57;;;6.97;;
17524;SDS011;40431;52.198;9.902;2023-09-08T03:13:39;7.63;;;6.70;;
17524;SDS011;40431;52.198;9.902;2023-09-08T03:16:06;6.63;;;6.07;;
17524;SDS011;40431;52.198;9.902;2023-09-08T03:18:33;6.10;;;5.43;;
17524;SDS011;40431;52.198;9.902;2023-09-08T03:21:01;7.23;;;6.80;;
17524;SDS011;40431;52.198;9.902;2023-09-08T03:23:34;6.60;;;6.10;;
17524;SDS011;40431;52.198;9.902;2023-09-08T03:26:01;7.13;;;6.63;;
17524;SDS011;40431;52.198;9.902;2023-09-08T03:28:28;6.80;;;6.30;;
17524;SDS011;40431;52.198;9.902;2023-09-08T03:30:54;7.03;;;6.43;;
17524;SDS011;40431;52.198;9.902;2023-09-08T03:33:21;7.03;;;6.53;;
17524;SDS011;40431;52.198;9.902;2023-09-08T03:35:47;7.93;;;7.33;;
17524;SDS011;40431;52.198;9.902;2023-09-08T03:38:14;7.30;;;6.80;;
17524;SDS011;40431;52.198;9.902;2023-09-08T03:40:40;7.30;;;6.70;;
17524;SDS011;40431;52.198;9.902;2023-09-08T03:43:09;7.90;;;7.10;;
17524;SDS011;40431;52.198;9.902;2023-09-08T03:45:35;6.73;;;6.13;;
17524;SDS011;40431;52.198;9.902;2023-09-08T03:48:01;6.90;;;6.50;;
17524;SDS011;40431;52.198;9.902;2023-09-08T03:50:29;6.63;;;6.13;;
17524;SDS011;40431;52.198;9.902;2023-09-08T03:52:55;7.07;;;6.57;;
17524;SDS011;40431;52.198;9.902;2023-09-08T03:55:22;6.57;;;6.03;;
17524;SDS011;40431;52.198;9.902;2023-09-08T03:57:48;7.50;;;7.00;;
17524;SDS011;40431;52.198;9.902;2023-09-08T04:00:16;7.87;;;7.00;;
17524;SDS011;40431;52.198;9.902;2023-09-08T04:02:46;7.83;;;7.13;;
17524;SDS011;40431;52.198;9.902;2023-09-08T04:05:13;6.97;;;6.43;;
17524;SDS011;40431;52.198;9.902;2023-09-08T04:07:40;6.67;;;6.27;;
17524;SDS011;40431;52.198;9.902;2023-09-08T04:10:07;6.77;;;6.10;;
17524;SDS011;40431;52.198;9.902;2023-09-08T04:12:34;6.87;;;6.17;;
17524;SDS011;40431;52.198;9.902;2023-09-08T04:15:00;7.10;;;6.60;;
17524;SDS011;40431;52.198;9.902;2023-09-08T04:17:28;7.40;;;6.73;;
17524;SDS011;40431;52.198;9.902;2023-09-08T04:19:55;7.50;;;7.00;;
17524;SDS011;40431;52.198;9.902;2023-09-08T04:22:21;6.60;;;6.00;;
17524;SDS011;40431;52.198;9.902;2023-09-08T04:24:48;8.23;;;6.57;;
17524;SDS011;40431;52.198;9.902;2023-09-08T04:27:14;7.83;;;7.17;;
17524;SDS011;40431;52.198;9.902;2023-09-08T04:29:41;8.33;;;7.63;;
17524;SDS011;40431;52.198;9.902;2023-09-08T04:32:08;6.97;;;6.37;;
17524;SDS011;40431;52.198;9.902;2023-09-08T04:34:37;8.20;;;7.40;;
17524;SDS011;40431;52.198;9.902;2023-09-08T04:37:04;8.00;;;7.33;;
17524;SDS011;40431;52.198;9.902;2023-09-08T04:39:31;7.47;;;6.93;;
17524;SDS011;40431;52.198;9.902;2023-09-08T04:41:58;7.47;;;6.87;;
17524;SDS011;40431;52.198;9.902;2023-09-08T04:44:24;13.80;;;6.83;;
17524;SDS011;40431;52.198;9.902;2023-09-08T04:46:51;7.60;;;7.00;;
17524;SDS011;40431;52.198;9.902;2023-09-08T04:49:18;7.57;;;7.03;;
17524;SDS011;40431;52.198;9.902;2023-09-08T04:51:46;7.70;;;7.10;;
17524;SDS011;40431;52.198;9.902;2023-09-08T04:54:11;8.33;;;7.63;;
17524;SDS011;40431;52.198;9.902;2023-09-08T04:56:38;8.10;;;7.50;;
17524;SDS011;40431;52.198;9.902;2023-09-08T04:59:04;7.63;;;6.90;;
17524;SDS011;40431;52.198;9.902;2023-09-08T05:01:31;7.97;;;7.37;;
17524;SDS011;40431;52.198;9.902;2023-09-08T05:03:58;8.00;;;7.40;;
17524;SDS011;40431;52.198;9.902;2023-09-08T05:06:25;8.07;;;7.47;;
17524;SDS011;40431;52.198;9.902;2023-09-08T05:08:53;8.30;;;7.63;;
17524;SDS011;40431;52.198;9.902;2023-09-08T05:11:20;8.23;;;7.67;;
17524;SDS011;40431;52.198;9.902;2023-09-08T05:13:46;9.03;;;7.07;;
17524;SDS011;40431;52.198;9.902;2023-09-08T05:16:13;8.33;;;7.63;;
17524;SDS011;40431;52.198;9.902;2023-09-08T05:18:39;8.50;;;7.90;;
17524;SDS011;40431;52.198;9.902;2023-09-08T05:21:06;8.10;;;7.40;;
17524;SDS011;40431;52.198;9.902;2023-09-08T05:23:33;8.10;;;7.40;;
17524;SDS011;40431;52.198;9.902;2023-09-08T05:26:01;8.67;;;7.97;;
17524;SDS011;40431;52.198;9.902;2023-09-08T05:28:27;8.23;;;7.63;;
17524;SDS011;40431;52.198;9.902;2023-09-08T05:30:54;9.03;;;8.30;;
17524;SDS011;40431;52.198;9.902;2023-09-08T05:33:20;8.43;;;7.27;;
17524;SDS011;40431;52.198;9.902;2023-09-08T05:35:47;7.67;;;6.93;;
17524;SDS011;40431;52.198;9.902;2023-09-08T05:38:13;8.30;;;7.70;;
17524;SDS011;40431;52.198;9.902;2023-09-08T05:40:39;7.97;;;7.27;;
17524;SDS011;40431;52.198;9.902;2023-09-08T05:43:07;8.47;;;7.67;;
17524;SDS011;40431;52.198;9.902;2023-09-08T05:45:33;8.27;;;7.43;;
17524;SDS011;40431;52.198;9.902;2023-09-08T05:48:00;8.23;;;7.10;;
17524;SDS011;40431;52.198;9.902;2023-09-08T05:50:28;7.60;;;6.93;;
17524;SDS011;40431;52.198;9.902;2023-09-08T05:52:54;7.77;;;7.13;;
17524;SDS011;40431;52.198;9.902;2023-09-08T05:55:21;13.30;;;7.50;;
17524;SDS011;40431;52.198;9.902;2023-09-08T05:57:47;8.47;;;7.87;;
17524;SDS011;40431;52.198;9.902;2023-09-08T06:00:15;8.00;;;7.23;;
17524;SDS011;40431;52.198;9.902;2023-09-08T06:02:42;9.07;;;8.27;;
17524;SDS011;40431;52.198;9.902;2023-09-08T06:05:09;7.97;;;7.33;;
17524;SDS011;40431;52.198;9.902;2023-09-08T06:07:35;8.57;;;7.77;;
17524;SDS011;40431;52.198;9.902;2023-09-08T06:10:01;7.40;;;6.90;;
17524;SDS011;40431;52.198;9.902;2023-09-08T06:12:28;8.33;;;7.70;;
17524;SDS011;40431;52.198;9.902;2023-09-08T06:14:54;7.40;;;6.90;;
17524;SDS011;40431;52.198;9.902;2023-09-08T06:17:22;7.50;;;6.83;;
17524;SDS011;40431;52.198;9.902;2023-09-08T06:19:49;7.00;;;6.40;;
17524;SDS011;40431;52.198;9.902;2023-09-08T06:22:15;6.83;;;6.33;;
17524;SDS011;40431;52.198;9.902;2023-09-08T06:24:42;6.90;;;6.37;;
17524;SDS011;40431;52.198;9.902;2023-09-08T06:27:08;6.83;;;6.30;;
17524;SDS011;40431;52.198;9.902;2023-09-08T06:29:36;6.80;;;6.20;;
17524;SDS011;40431;52.198;9.902;2023-09-08T06:32:04;6.80;;;6.10;;
17524;SDS011;40431;52.198;9.902;2023-09-08T06:34:32;6.90;;;6.33;;
17524;SDS011;40431;52.198;9.902;2023-09-08T06:37:00;7.90;;;7.20;;
17524;SDS011;40431;52.198;9.902;2023-09-08T06:39:27;7.27;;;6.63;;
17524;SDS011;40431;52.198;9.902;2023-09-08T06:41:53;7.93;;;7.20;;
17524;SDS011;40431;52.198;9.902;2023-09-08T06:44:20;12.10;;;7.07;;
17524;SDS011;40431;52.198;9.902;2023-09-08T06:46:47;7.27;;;6.33;;
17524;SDS011;40431;52.198;9.902;2023-09-08T06:49:13;7.40;;;6.70;;
17524;SDS011;40431;52.198;9.902;2023-09-08T06:51:41;7.17;;;6.57;;
17524;SDS011;40431;52.198;9.902;2023-09-08T06:54:08;7.93;;;6.93;;
17524;SDS011;40431;52.198;9.902;2023-09-08T06:56:35;6.77;;;6.27;;
17524;SDS011;40431;52.198;9.902;2023-09-08T06:59:02;6.53;;;6.03;;
17524;SDS011;40431;52.198;9.902;2023-09-08T07:01:28;6.23;;;5.83;;
17524;SDS011;40431;52.198;9.902;2023-09-08T07:03:54;6.40;;;5.90;;
17524;SDS011;40431;52.198;9.902;2023-09-08T07:06:21;8.67;;;5.90;;
17524;SDS011;40431;52.198;9.902;2023-09-08T07:08:49;7.87;;;6.23;;
17524;SDS011;40431;52.198;9.902;2023-09-08T07:11:16;9.20;;;5.60;;
17524;SDS011;40431;52.198;9.902;2023-09-08T07:13:42;6.50;;;6.07;;
17524;SDS011;40431;52.198;9.902;2023-09-08T07:16:09;6.63;;;6.03;;
17524;SDS011;40431;52.198;9.902;2023-09-08T07:18:36;7.40;;;6.70;;
17524;SDS011;40431;52.198;9.902;2023-09-08T07:21:03;7.17;;;6.37;;
17524;SDS011;40431;52.198;9.902;2023-09-08T07:23:29;6.80;;;6.27;;
17524;SDS011;40431;52.198;9.902;2023-09-08T07:25:57;8.70;;;6.63;;
17524;SDS011;40431;52.198;9.902;2023-09-08T07:28:24;8.13;;;6.40;;
17524;SDS011;40431;52.198;9.902;2023-09-08T07:30:50;7.30;;;6.77;;
17524;SDS011;40431;52.198;9.902;2023-09-08T07:33:17;8.30;;;7.00;;
17524;SDS011;40431;52.198;9.902;2023-09-08T07:35:44;13.13;;;7.63;;
17524;SDS011;40431;52.198;9.902;2023-09-08T07:38:11;8.33;;;7.73;;
17524;SDS011;40431;52.198;9.902;2023-09-08T07:40:37;9.23;;;8.47;;
17524;SDS011;40431;52.198;9.902;2023-09-08T07:43:05;10.10;;;8.07;;
17524;SDS011;40431;52.198;9.902;2023-09-08T07:45:31;7.97;;;7.03;;
17524;SDS011;40431;52.198;9.902;2023-09-08T07:47:58;11.10;;;7.70;;
17524;SDS011;40431;52.198;9.902;2023-09-08T07:50:25;9.77;;;7.83;;
17524;SDS011;40431;52.198;9.902;2023-09-08T07:52:53;9.50;;;7.83;;
17524;SDS011;40431;52.198;9.902;2023-09-08T07:55:21;7.33;;;6.60;;
17524;SDS011;40431;52.198;9.902;2023-09-08T07:57:49;10.40;;;7.73;;
17524;SDS011;40431;52.198;9.902;2023-09-08T08:00:18;7.17;;;6.40;;
17524;SDS011;40431;52.198;9.902;2023-09-08T08:02:45;8.97;;;6.20;;
17524;SDS011;40431;52.198;9.902;2023-09-08T08:05:13;7.73;;;5.90;;
17524;SDS011;40431;52.198;9.902;2023-09-08T08:07:39;6.70;;;6.00;;
17524;SDS011;40431;52.198;9.902;2023-09-08T08:10:06;8.03;;;6.40;;
17524;SDS011;40431;52.198;9.902;2023-09-08T08:12:33;6.97;;;6.37;;
17524;SDS011;40431;52.198;9.902;2023-09-08T08:14:59;6.10;;;5.60;;
17524;SDS011;40431;52.198;9.902;2023-09-08T08:17:27;7.50;;;6.80;;
17524;SDS011;40431;52.198;9.902;2023-09-08T08:19:55;6.77;;;6.07;;
17524;SDS011;40431;52.198;9.902;2023-09-08T08:22:23;6.90;;;5.67;;
17524;SDS011;40431;52.198;9.902;2023-09-08T08:24:49;7.37;;;6.27;;
17524;SDS011;40431;52.198;9.902;2023-09-08T08:27:16;8.57;;;5.43;;
17524;SDS011;40431;52.198;9.902;2023-09-08T08:29:42;6.20;;;5.57;;
17524;SDS011;40431;52.198;9.902;2023-09-08T08:32:09;8.83;;;5.33;;
17524;SDS011;40431;52.198;9.902;2023-09-08T08:34:38;6.60;;;5.70;;
17524;SDS011;40431;52.198;9.902;2023-09-08T08:37:05;7.30;;;4.67;;
17524;SDS011;40431;52.198;9.902;2023-09-08T08:39:31;5.80;;;5.30;;
17524;SDS011;40431;52.198;9.902;2023-09-08T08:41:57;5.23;;;4.83;;
17524;SDS011;40431;52.198;9.902;2023-09-08T08:44:24;8.20;;;4.90;;
17524;SDS011;40431;52.198;9.902;2023-09-08T08:46:51;6.53;;;5.53;;
17524;SDS011;40431;52.198;9.902;2023-09-08T08:49:19;10.80;;;5.70;;
17524;SDS011;40431;52.198;9.902;2023-09-08T08:51:49;4.80;;;4.40;;
17524;SDS011;40431;52.198;9.902;2023-09-08T08:54:17;5.37;;;4.77;;
17524;SDS011;40431;52.198;9.902;2023-09-08T08:56:45;4.33;;;3.93;;
17524;SDS011;40431;52.198;9.902;2023-09-08T08:59:12;4.80;;;4.40;;
17524;SDS011;40431;52.198;9.902;2023-09-08T09:01:40;5.00;;;4.70;;
17524;SDS011;40431;52.198;9.902;2023-09-08T09:04:08;5.17;;;4.60;;
17524;SDS011;40431;52.198;9.902;2023-09-08T09:06:35;4.80;;;4.40;;
17524;SDS011;40431;52.198;9.902;2023-09-08T09:09:03;4.73;;;4.23;;
17524;SDS011;40431;52.198;9.902;2023-09-08T09:11:30;6.03;;;4.33;;
17524;SDS011;40431;52.198;9.902;2023-09-08T09:13:57;5.13;;;4.73;;
17524;SDS011;40431;52.198;9.902;2023-09-08T09:16:23;4.37;;;4.03;;
17524;SDS011;40431;52.198;9.902;2023-09-08T09:18:53;4.87;;;4.40;;
17524;SDS011;40431;52.198;9.902;2023-09-08T09:21:21;3.83;;;3.53;;
17524;SDS011;40431;52.198;9.902;2023-09-08T09:23:48;5.03;;;4.00;;
17524;SDS011;40431;52.198;9.902;2023-09-08T09:26:23;5.80;;;4.27;;
17524;SDS011;40431;52.198;9.902;2023-09-08T09:28:50;4.77;;;4.37;;
17524;SDS011;40431;52.198;9.902;2023-09-08T09:31:18;4.80;;;4.40;;
17524;SDS011;40431;52.198;9.902;2023-09-08T09:33:49;8.83;;;4.40;;
17524;SDS011;40431;52.198;9.902;2023-09-08T09:36:28;4.63;;;4.20;;
17524;SDS011;40431;52.198;9.902;2023-09-08T09:38:57;7.47;;;4.80;;
17524;SDS011;40431;52.198;9.902;2023-09-08T09:41:25;5.23;;;4.03;;
17524;SDS011;40431;52.198;9.902;2023-09-08T09:43:53;7.30;;;4.00;;
17524;SDS011;40431;52.198;9.902;2023-09-08T09:46:20;4.07;;;3.67;;
17524;SDS011;40431;52.198;9.902;2023-09-08T09:48:49;4.97;;;4.03;;
17524;SDS011;40431;52.198;9.902;2023-09-08T09:51:17;4.73;;;4.40;;
17524;SDS011;40431;52.198;9.902;2023-09-08T09:53:45;4.60;;;3.87;;
17524;SDS011;40431;52.198;9.902;2023-09-08T09:56:13;4.37;;;4.07;;
17524;SDS011;40431;52.198;9.902;2023-09-08T09:58:42;4.17;;;3.77;;
17524;SDS011;40431;52.198;9.902;2023-09-08T10:01:08;4.23;;;3.87;;
17524;SDS011;40431;52.198;9.902;2023-09-08T10:03:37;5.50;;;3.50;;
17524;SDS011;40431;52.198;9.902;2023-09-08T10:06:04;3.87;;;3.47;;
17524;SDS011;40431;52.198;9.902;2023-09-08T10:08:32;4.33;;;4.03;;
17524;SDS011;40431;52.198;9.902;2023-09-08T10:11:01;6.90;;;3.97;;
17524;SDS011;40431;52.198;9.902;2023-09-08T10:13:31;7.33;;;3.97;;
17524;SDS011;40431;52.198;9.902;2023-09-08T10:16:01;4.30;;;3.90;;
17524;SDS011;40431;52.198;9.902;2023-09-08T10:18:28;4.40;;;4.00;;
17524;SDS011;40431;52.198;9.902;2023-09-08T10:20:55;3.50;;;3.30;;
17524;SDS011;40431;52.198;9.902;2023-09-08T10:23:27;4.07;;;3.77;;
17524;SDS011;40431;52.198;9.902;2023-09-08T10:26:02;4.33;;;3.93;;
17524;SDS011;40431;52.198;9.902;2023-09-08T10:28:32;4.30;;;2.97;;
17524;SDS011;40431;52.198;9.902;2023-09-08T10:30:58;3.80;;;3.50;;
17524;SDS011;40431;52.198;9.902;2023-09-08T10:33:27;4.20;;;3.57;;
17524;SDS011;40431;52.198;9.902;2023-09-08T10:35:54;3.73;;;3.33;;
17524;SDS011;40431;52.198;9.902;2023-09-08T10:38:22;3.27;;;3.07;;
17524;SDS011;40431;52.198;9.902;2023-09-08T10:40:49;4.10;;;3.70;;
17524;SDS011;40431;52.198;9.902;2023-09-08T10:43:17;3.57;;;3.23;;
17524;SDS011;40431;52.198;9.902;2023-09-08T10:45:45;4.03;;;3.73;;
17524;SDS011;40431;52.198;9.902;2023-09-08T10:48:13;3.97;;;3.57;;
17524;SDS011;40431;52.198;9.902;2023-09-08T10:50:41;3.60;;;3.30;;
17524;SDS011;40431;52.198;9.902;2023-09-08T10:53:09;3.73;;;3.27;;
17524;SDS011;40431;52.198;9.902;2023-09-08T10:55:39;5.23;;;3.40;;
17524;SDS011;40431;52.198;9.902;2023-09-08T10:58:08;3.77;;;3.47;;
17524;SDS011;40431;52.198;9.902;2023-09-08T11:00:42;4.43;;;3.27;;
17524;SDS011;40431;52.198;9.902;2023-09-08T11:03:09;3.37;;;2.97;;
17524;SDS011;40431;52.198;9.902;2023-09-08T11:05:37;3.07;;;2.77;;
17524;SDS011;40431;52.198;9.902;2023-09-08T11:08:04;4.07;;;3.20;;
17524;SDS011;40431;52.198;9.902;2023-09-08T11:10:31;3.30;;;3.00;;
17524;SDS011;40431;52.198;9.902;2023-09-08T11:13:00;3.13;;;2.90;;
17524;SDS011;40431;52.198;9.902;2023-09-08T11:15:28;3.53;;;2.80;;
17524;SDS011;40431;52.198;9.902;2023-09-08T11:17:55;4.87;;;2.50;;
17524;SDS011;40431;52.198;9.902;2023-09-08T11:20:25;3.67;;;3.37;;
17524;SDS011;40431;52.198;9.902;2023-09-08T11:22:54;4.37;;;3.17;;
17524;SDS011;40431;52.198;9.902;2023-09-08T11:25:21;3.10;;;2.80;;
17524;SDS011;40431;52.198;9.902;2023-09-08T11:27:48;3.50;;;3.10;;
17524;SDS011;40431;52.198;9.902;2023-09-08T11:30:15;3.10;;;2.90;;
17524;SDS011;40431;52.198;9.902;2023-09-08T11:32:42;3.33;;;2.70;;
17524;SDS011;40431;52.198;9.902;2023-09-08T11:35:09;3.20;;;3.00;;
17524;SDS011;40431;52.198;9.902;2023-09-08T11:37:36;2.53;;;2.33;;
17524;SDS011;40431;52.198;9.902;2023-09-08T11:40:06;8.00;;;3.13;;
17524;SDS011;40431;52.198;9.902;2023-09-08T11:42:37;4.53;;;2.87;;
17524;SDS011;40431;52.198;9.902;2023-09-08T11:45:09;3.47;;;3.17;;
17524;SDS011;40431;52.198;9.902;2023-09-08T11:47:39;3.60;;;3.30;;
17524;SDS011;40431;52.198;9.902;2023-09-08T11:50:06;3.93;;;2.90;;
17524;SDS011;40431;52.198;9.902;2023-09-08T11:52:33;3.00;;;2.80;;
17524;SDS011;40431;52.198;9.902;2023-09-08T11:55:00;3.77;;;2.70;;
17524;SDS011;40431;52.198;9.902;2023-09-08T11:57:28;3.27;;;2.80;;
17524;SDS011;40431;52.198;9.902;2023-09-08T11:59:56;3.27;;;3.00;;
17524;SDS011;40431;52.198;9.902;2023-09-08T12:02:23;2.73;;;2.20;;
17524;SDS011;40431;52.198;9.902;2023-09-08T12:04:50;2.40;;;2.00;;
17524;SDS011;40431;52.198;9.902;2023-09-08T12:07:19;2.90;;;2.43;;
17524;SDS011;40431;52.198;9.902;2023-09-08T12:09:45;3.03;;;2.73;;
17524;SDS011;40431;52.198;9.902;2023-09-08T12:12:12;2.50;;;2.23;;
17524;SDS011;40431;52.198;9.902;2023-09-08T12:14:41;2.67;;;2.00;;
17524;SDS011;40431;52.198;9.902;2023-09-08T12:17:08;2.67;;;2.20;;
17524;SDS011;40431;52.198;9.902;2023-09-08T12:19:34;2.67;;;2.47;;
17524;SDS011;40431;52.198;9.902;2023-09-08T12:22:02;2.60;;;2.40;;
17524;SDS011;40431;52.198;9.902;2023-09-08T12:27:15;2.70;;;2.43;;
17524;SDS011;40431;52.198;9.902;2023-09-08T12:29:45;2.87;;;2.63;;
17524;SDS011;40431;52.198;9.902;2023-09-08T12:32:18;2.77;;;2.10;;
17524;SDS011;40431;52.198;9.902;2023-09-08T12:34:44;4.40;;;2.23;;
17524;SDS011;40431;52.198;9.902;2023-09-08T12:37:11;2.60;;;2.40;;
17524;SDS011;40431;52.198;9.902;2023-09-08T12:39:38;3.47;;;2.53;;
17524;SDS011;40431;52.198;9.902;2023-09-08T12:42:05;5.33;;;2.30;;
17524;SDS011;40431;52.198;9.902;2023-09-08T12:44:31;2.63;;;2.30;;
17524;SDS011;40431;52.198;9.902;2023-09-08T12:46:59;2.50;;;2.20;;
17524;SDS011;40431;52.198;9.902;2023-09-08T12:49:25;2.60;;;2.40;;
17524;SDS011;40431;52.198;9.902;2023-09-08T12:51:52;2.57;;;2.37;;
17524;SDS011;40431;52.198;9.902;2023-09-08T12:54:18;3.30;;;2.20;;
17524;SDS011;40431;52.198;9.902;2023-09-08T12:56:44;2.63;;;2.43;;
17524;SDS011;40431;52.198;9.902;2023-09-08T12:59:11;2.47;;;2.27;;
17524;SDS011;40431;52.198;9.902;2023-09-08T13:01:37;2.43;;;2.23;;
17524;SDS011;40431;52.198;9.902;2023-09-08T13:04:05;4.27;;;2.70;;
17524;SDS011;40431;52.198;9.902;2023-09-08T13:06:32;2.80;;;2.60;;
17524;SDS011;40431;52.198;9.902;2023-09-08T13:08:59;3.63;;;2.10;;
17524;SDS011;40431;52.198;9.902;2023-09-08T13:11:26;2.03;;;1.90;;
17524;SDS011;40431;52.198;9.902;2023-09-08T13:13:53;5.23;;;2.03;;
17524;SDS011;40431;52.198;9.902;2023-09-08T13:16:19;2.27;;;2.07;;
17524;SDS011;40431;52.198;9.902;2023-09-08T13:18:45;2.90;;;2.37;;
17524;SDS011;40431;52.198;9.902;2023-09-08T13:21:13;2.93;;;2.37;;
17524;SDS011;40431;52.198;9.902;2023-09-08T13:23:40;2.50;;;2.13;;
17524;SDS011;40431;52.198;9.902;2023-09-08T13:26:06;2.33;;;2.00;;
17524;SDS011;40431;52.198;9.902;2023-09-08T13:28:33;2.63;;;2.42;;
17524;SDS011;40431;52.198;9.902;2023-09-08T13:30:59;2.20;;;2.10;;
17524;SDS011;40431;52.198;9.902;2023-09-08T13:33:25;2.23;;;2.10;;
17524;SDS011;40431;52.198;9.902;2023-09-08T13:35:52;2.77;;;2.37;;
17524;SDS011;40431;52.198;9.902;2023-09-08T13:38:21;3.63;;;2.40;;
17524;SDS011;40431;52.198;9.902;2023-09-08T13:40:47;2.67;;;2.30;;
17524;SDS011;40431;52.198;9.902;2023-09-08T13:43:13;2.57;;;2.37;;
17524;SDS011;40431;52.198;9.902;2023-09-08T13:45:40;3.87;;;2.40;;
17524;SDS011;40431;52.198;9.902;2023-09-08T13:48:07;7.30;;;2.47;;
17524;SDS011;40431;52.198;9.902;2023-09-08T13:50:34;2.13;;;1.93;;
17524;SDS011;40431;52.198;9.902;2023-09-08T13:53:00;3.17;;;2.20;;
17524;SDS011;40431;52.198;9.902;2023-09-08T13:55:28;2.80;;;2.60;;
17524;SDS011;40431;52.198;9.902;2023-09-08T13:57:55;2.30;;;2.20;;
17524;SDS011;40431;52.198;9.902;2023-09-08T14:00:21;2.43;;;2.23;;
17524;SDS011;40431;52.198;9.902;2023-09-08T14:02:48;2.27;;;2.07;;
17524;SDS011;40431;52.198;9.902;2023-09-08T14:05:14;2.20;;;2.10;;
17524;SDS011;40431;52.198;9.902;2023-09-08T14:07:41;3.42;;;2.20;;
17524;SDS011;40431;52.198;9.902;2023-09-08T14:10:07;2.70;;;2.20;;
17524;SDS011;40431;52.198;9.902;2023-09-08T14:12:35;2.60;;;2.40;;
17524;SDS011;40431;52.198;9.902;2023-09-08T14:15:02;3.47;;;2.70;;
17524;SDS011;40431;52.198;9.902;2023-09-08T14:17:29;3.53;;;2.40;;
17524;SDS011;40431;52.198;9.902;2023-09-08T14:19:55;2.13;;;2.03;;
17524;SDS011;40431;52.198;9.902;2023-09-08T14:22:22;2.90;;;2.67;;
17524;SDS011;40431;52.198;9.902;2023-09-08T14:24:48;2.25;;;2.15;;
17524;SDS011;40431;52.198;9.902;2023-09-08T14:27:14;6.38;;;2.67;;
17524;SDS011;40431;52.198;9.902;2023-09-08T14:29:42;2.60;;;1.97;;
17524;SDS011;40431;52.198;9.902;2023-09-08T14:32:09;2.40;;;2.17;;
17524;SDS011;40431;52.198;9.902;2023-09-08T14:34:35;3.20;;;2.33;;
17524;SDS011;40431;52.198;9.902;2023-09-08T14:37:01;2.92;;;2.65;;
17524;SDS011;40431;52.198;9.902;2023-09-08T14:39:28;2.65;;;2.40;;
17524;SDS011;40431;52.198;9.902;2023-09-08T14:41:54;2.40;;;2.20;;
17524;SDS011;40431;52.198;9.902;2023-09-08T14:44:21;2.50;;;2.23;;
17524;SDS011;40431;52.198;9.902;2023-09-08T14:46:50;2.83;;;2.63;;
17524;SDS011;40431;52.198;9.902;2023-09-08T14:49:16;4.03;;;2.70;;
17524;SDS011;40431;52.198;9.902;2023-09-08T14:51:43;3.63;;;2.28;;